tititudorancea.com
Station Historical Data
Daily Summary for November 11, 2018 Units:  Metric    English   Both
« Previous Day
Next Day »
Daily Weekly Monthly Yearly Custom
  High: Low: Average:
Temperature: -17.8 °C 6.8 °C 15.5 °C
Dew Point: -17.8 °C 3.7 °C 6.8 °C
Humidity: Humidity % 27 % 62 %
Wind Speed: 0 km/h 0 km/h 8.2 km/h
Wind Gust: 0 km/h - -
Wind:- - SSE
Pressure: 0 hPa 1016.1 hPa -
Precipitation: 0 mm    
Historical Graphs
 
 
Ararat weather Find more about Weather in Ararat, AU


 



 


Tabular Data for November 11, 2018
Time Temperature Dew Point Pressure Wind Wind Speed Wind Gust Humidity Rainfall Rate (Hourly)
-17.8 °C -17.8 °C 0 hPa Calm     Humidity % 0 mm
00:04 9.6 °C 6.8 °C 1019.5 hPa South 11.1 km/h 7.4 km/h 83 % 0 mm
00:09 9.5 °C 6.8 °C 1019.5 hPa South 8 km/h 6.3 km/h 83 % 0 mm
00:14 9.5 °C 6.8 °C 1019.5 hPa South 8 km/h 5.3 km/h 83 % 0 mm
00:19 9.4 °C 6.9 °C 1019.5 hPa South 9.7 km/h 7.7 km/h 84 % 0 mm
00:24 9.4 °C 6.9 °C 1019.5 hPa South 11.1 km/h 5.3 km/h 84 % 0 mm
00:29 9.4 °C 6.8 °C 1019.5 hPa South 9.7 km/h 5.3 km/h 84 % 0 mm
00:34 9.4 °C 6.8 °C 1019.5 hPa South 9.3 km/h 6.6 km/h 84 % 0 mm
00:39 9.4 °C 6.9 °C 1019.5 hPa South 11.1 km/h 7.7 km/h 84 % 0 mm
00:44 9.4 °C 6.9 °C 1019.5 hPa South 11.1 km/h 7.9 km/h 84 % 0 mm
00:49 9.5 °C 6.9 °C 1019.5 hPa South 11.1 km/h 9.2 km/h 84 % 0 mm
00:54 9.6 °C 7 °C 1019.5 hPa South 11.1 km/h 7.1 km/h 84 % 0 mm
00:59 9.6 °C 6.8 °C 1019.5 hPa South 9.7 km/h 4.2 km/h 83 % 0 mm
01:04 9.5 °C 6.8 °C 1019.5 hPa SSW 7.4 km/h 6.6 km/h 83 % 0 mm
01:09 9.5 °C 6.8 °C 1019.5 hPa South 8 km/h 5 km/h 83 % 0 mm
01:14 9.4 °C 6.7 °C 1019.5 hPa South 9.3 km/h 7.6 km/h 83 % 0 mm
01:19 9.4 °C 6.7 °C 1019.5 hPa South 6.4 km/h 4.2 km/h 83 % 0 mm
01:24 9.2 °C 6.5 °C 1019.5 hPa South 5.6 km/h 5.1 km/h 83 % 0 mm
01:29 9.1 °C 6.4 °C 1019.5 hPa South 6.4 km/h 2.9 km/h 83 % 0 mm
01:34 8.9 °C 6.2 °C 1019.5 hPa South 5.6 km/h 4.2 km/h 83 % 0 mm
01:39 8.8 °C 6.3 °C 1019.2 hPa South 5.6 km/h 4.2 km/h 84 % 0 mm
01:44 8.7 °C 6.1 °C 1019.2 hPa South 5.6 km/h 4 km/h 84 % 0 mm
01:49 8.6 °C 6.2 °C 1019.2 hPa South 5.6 km/h 2.3 km/h 85 % 0 mm
01:54 8.4 °C 6.1 °C 1019.2 hPa South 5.6 km/h 3.5 km/h 85 % 0 mm
01:59 8.3 °C 5.9 °C 1019.2 hPa South 5.6 km/h 3.7 km/h 85 % 0 mm
02:04 8.3 °C 5.9 °C 1019.2 hPa South 3.7 km/h 1.8 km/h 85 % 0 mm
02:09 8.2 °C 5.8 °C 1018.8 hPa South 1.9 km/h   85 % 0 mm
02:14 8.1 °C 5.7 °C 1019.2 hPa South 3.7 km/h 1.8 km/h 85 % 0 mm
02:19 7.9 °C 5.5 °C 1018.8 hPa South 5.6 km/h 3.5 km/h 85 % 0 mm
02:24 7.8 °C 5.6 °C 1018.8 hPa South 5.6 km/h 3.5 km/h 86 % 0 mm
02:29 7.8 °C 5.7 °C 1018.8 hPa South 7.4 km/h 4.2 km/h 87 % 0 mm
02:34 7.7 °C 5.7 °C 1018.8 hPa South 5.6 km/h 3.5 km/h 87 % 0 mm
02:39 7.7 °C 5.7 °C 1018.8 hPa South 5.6 km/h 4.3 km/h 87 % 0 mm
02:44 7.6 °C 5.6 °C 1018.8 hPa South 6.4 km/h 5.1 km/h 87 % 0 mm
02:49 7.6 °C 5.7 °C 1018.8 hPa South 7.4 km/h 6.1 km/h 88 % 0 mm
02:54 7.6 °C 5.7 °C 1018.8 hPa South 7.4 km/h 6.3 km/h 88 % 0 mm
02:59 7.7 °C 5.8 °C 1018.8 hPa South 5.6 km/h 3.2 km/h 88 % 0 mm
03:04 7.6 °C 5.7 °C 1018.8 hPa South 5.6 km/h 3.2 km/h 88 % 0 mm
03:09 7.6 °C 5.7 °C 1018.8 hPa South 5.6 km/h 2.9 km/h 88 % 0 mm
03:14 7.6 °C 5.7 °C 1018.8 hPa South 5.6 km/h 3.2 km/h 88 % 0 mm
03:19 7.6 °C 5.7 °C 1018.8 hPa South 5.6 km/h 3.7 km/h 88 % 0 mm
03:24 7.6 °C 5.7 °C 1018.8 hPa South 5.6 km/h 5.5 km/h 88 % 0 mm
03:29 7.6 °C 5.7 °C 1018.8 hPa South 5.6 km/h 3.5 km/h 88 % 0 mm
03:34 7.5 °C 5.7 °C 1018.8 hPa South 8 km/h 5.1 km/h 88 % 0 mm
03:39 7.5 °C 5.7 °C 1018.8 hPa South 5.6 km/h 3.7 km/h 88 % 0 mm
03:44 7.4 °C 5.6 °C 1018.8 hPa South 5.6 km/h 2.7 km/h 88 % 0 mm
03:49 7.3 °C 5.5 °C 1018.8 hPa South 5.6 km/h 4.7 km/h 88 % 0 mm
03:54 7.3 °C 5.4 °C 1018.8 hPa South 7.4 km/h 3.4 km/h 88 % 0 mm
03:59 7.2 °C 5.3 °C 1018.5 hPa South 7.4 km/h 4 km/h 88 % 0 mm
04:04 7.1 °C 5.3 °C 1018.5 hPa South 7.4 km/h 4.2 km/h 88 % 0 mm
04:09 7.1 °C 5.4 °C 1018.8 hPa South 5.6 km/h 4 km/h 89 % 0 mm
04:14 7 °C 5.3 °C 1018.5 hPa South 5.6 km/h 4.3 km/h 89 % 0 mm
04:19 7 °C 5.3 °C 1018.5 hPa South 5.6 km/h 2.6 km/h 89 % 0 mm
04:24 7 °C 5.3 °C 1018.8 hPa SSW 11.1 km/h 9.7 km/h 89 % 0 mm
04:29 7.2 °C 5.7 °C 1018.8 hPa South 7.4 km/h 6.1 km/h 90 % 0 mm
04:34 7.2 °C 5.6 °C 1018.5 hPa South 5.6 km/h 4.3 km/h 90 % 0 mm
04:39 7 °C 5.4 °C 1018.5 hPa South 7.4 km/h 5.5 km/h 90 % 0 mm
04:44 6.9 °C 5.2 °C 1018.5 hPa South 5.6 km/h 3.1 km/h 89 % 0 mm
04:49 6.8 °C 5.3 °C 1018.5 hPa South 7.4 km/h 4.8 km/h 90 % 0 mm
04:54 6.8 °C 5.3 °C 1018.5 hPa South 5.6 km/h 2.7 km/h 90 % 0 mm
04:59 7 °C 5.6 °C 1018.5 hPa South 7.4 km/h 5.1 km/h 91 % 0 mm
05:04 7.2 °C 5.8 °C 1018.8 hPa South 7.4 km/h 5.1 km/h 91 % 0 mm
05:09 7.3 °C 5.9 °C 1018.8 hPa South 11.1 km/h 8.5 km/h 91 % 0 mm
05:14 7.4 °C 6.1 °C 1018.8 hPa South 5.6 km/h 1.4 km/h 91 % 0 mm
05:19 7.4 °C 6.1 °C 1018.8 hPa South 9.3 km/h 5 km/h 91 % 0 mm
05:24 7.4 °C 6 °C 1018.8 hPa South 6.4 km/h 5.1 km/h 91 % 0 mm
05:29 7.4 °C 6.1 °C 1019.2 hPa South 8 km/h 6.4 km/h 91 % 0 mm
05:34 7.4 °C 6.1 °C 1019.2 hPa South 5.6 km/h 5.6 km/h 91 % 0 mm
05:39 7.4 °C 6.1 °C 1019.2 hPa South 8 km/h 6.3 km/h 91 % 0 mm
05:44 7.4 °C 5.9 °C 1019.2 hPa South 8 km/h 6.4 km/h 90 % 0 mm
05:49 7.5 °C 5.9 °C 1019.2 hPa South 9.3 km/h 3.5 km/h 90 % 0 mm
05:54 7.4 °C 5.8 °C 1019.2 hPa South 5.6 km/h 4.8 km/h 90 % 0 mm
05:59 7.4 °C 5.8 °C 1019.2 hPa South 5.6 km/h 4 km/h 90 % 0 mm
06:04 7.3 °C 5.8 °C 1019.2 hPa South 7.4 km/h 6.4 km/h 90 % 0 mm
06:09 7.4 °C 5.8 °C 1019.2 hPa South 6.4 km/h 5.8 km/h 90 % 0 mm
06:14 7.4 °C 5.9 °C 1019.2 hPa South 7.4 km/h 7.9 km/h 90 % 0 mm
06:19 7.5 °C 5.9 °C 1019.2 hPa South 7.4 km/h 3.5 km/h 90 % 0 mm
06:24 7.5 °C 5.9 °C 1019.2 hPa South 7.4 km/h 3.1 km/h 90 % 0 mm
06:29 7.4 °C 5.9 °C 1019.5 hPa South 7.4 km/h 6.1 km/h 90 % 0 mm
06:34 7.6 °C 6 °C 1019.5 hPa South 3.7 km/h 1 km/h 90 % 0 mm
06:39 7.7 °C 6.3 °C 1019.5 hPa South 5.6 km/h 4.5 km/h 91 % 0 mm
06:44 7.8 °C 6.3 °C 1019.5 hPa South 7.4 km/h 5.8 km/h 90 % 0 mm
06:49 8 °C 6.6 °C 1019.5 hPa South 9.3 km/h 4.7 km/h 91 % 0 mm
06:54 8.2 °C 6.7 °C 1019.9 hPa South 9.3 km/h 6.6 km/h 90 % 0 mm
06:59 8.3 °C 6.8 °C 1019.9 hPa SSW 5.6 km/h 4.3 km/h 90 % 0 mm
07:04 8.5 °C 6.9 °C 1020.2 hPa South 8 km/h 7.6 km/h 90 % 0 mm
07:09 8.7 °C 7.1 °C 1020.2 hPa South 5.6 km/h 4.5 km/h 90 % 0 mm
07:14 8.8 °C 7.3 °C 1020.2 hPa South 5.6 km/h 4.8 km/h 90 % 0 mm
07:19 9 °C 7.3 °C 1020.2 hPa South 5.6 km/h 6.3 km/h 89 % 0 mm
07:24 9.2 °C 7.4 °C 1020.2 hPa SSW 7.4 km/h 2.4 km/h 89 % 0 mm
07:29 9.3 °C 7.4 °C 1020.2 hPa SSW 5.6 km/h 5.8 km/h 88 % 0 mm
07:34 9.4 °C 7.5 °C 1020.2 hPa SSW 11.1 km/h 8.2 km/h 88 % 0 mm
07:39 9.6 °C 7.7 °C 1020.2 hPa SSW 9.3 km/h 4.7 km/h 88 % 0 mm
07:44 9.8 °C 7.9 °C 1020.2 hPa SSW 8 km/h 5 km/h 88 % 0 mm
07:49 10 °C 7.9 °C 1020.2 hPa SSW 3.7 km/h 4.5 km/h 87 % 0 mm
07:54 10.2 °C 8 °C 1020.2 hPa SSW 5.6 km/h 3.7 km/h 86 % 0 mm
07:59 10.3 °C 8.1 °C 1020.2 hPa SSW 5.6 km/h 0.6 km/h 86 % 0 mm
08:04 10.4 °C 8 °C 1020.2 hPa SSW 5.6 km/h 3.2 km/h 85 % 0 mm
08:09 10.7 °C 8.4 °C 1020.2 hPa SSW 5.6 km/h 3.7 km/h 86 % 0 mm
08:14 10.9 °C 8.3 °C 1020.2 hPa SSW 5.6 km/h 3.1 km/h 84 % 0 mm
08:19 11.3 °C 8.8 °C 1020.2 hPa SSW 3.7 km/h 1.4 km/h 85 % 0 mm
08:24 11.4 °C 8.7 °C 1020.2 hPa SSW 5.6 km/h 3.9 km/h 83 % 0 mm
08:29 11.6 °C 8.7 °C 1020.2 hPa SSW 5.6 km/h 4.8 km/h 82 % 0 mm
08:34 11.7 °C 8.9 °C 1020.2 hPa SSW 3.7 km/h 1.9 km/h 83 % 0 mm
08:39 12.3 °C 9.3 °C 1020.2 hPa SSW 5.6 km/h 4 km/h 82 % 0 mm
08:44 12.7 °C 9.3 °C 1020.2 hPa SSW 3.7 km/h 3.7 km/h 80 % 0 mm
08:49 13.2 °C 9.4 °C 1020.2 hPa SSW 5.6 km/h 5.1 km/h 78 % 0 mm
08:54 13.6 °C 9.1 °C 1020.2 hPa SSW 7.4 km/h 3.1 km/h 74 % 0 mm
08:59 14.1 °C 9.1 °C 1020.2 hPa SSW 3.7 km/h 2.7 km/h 72 % 0 mm
09:04 14.6 °C 9.2 °C 1020.2 hPa SSW 8 km/h 5.3 km/h 70 % 0 mm
09:09 14.9 °C 9.2 °C 1020.2 hPa SSW 5.6 km/h 5.3 km/h 69 % 0 mm
09:14 15.2 °C 8.8 °C 1020.2 hPa South 9.3 km/h 6.4 km/h 66 % 0 mm
09:19 15.2 °C 8.8 °C 1020.2 hPa South 9.3 km/h 6.3 km/h 66 % 0 mm
09:24 15.2 °C 8.9 °C 1020.2 hPa South 11.1 km/h 8.2 km/h 66 % 0 mm
09:29 15.4 °C 8.7 °C 1020.5 hPa SE 12.9 km/h 9.5 km/h 64 % 0 mm
09:34 15.4 °C 8.7 °C 1020.5 hPa SE 18.5 km/h 9.5 km/h 64 % 0 mm
09:39 15.4 °C 8.2 °C 1020.5 hPa SE 13 km/h 7.6 km/h 62 % 0 mm
09:44 15.2 °C 8.2 °C 1020.2 hPa SE 13 km/h 4 km/h 63 % 0 mm
09:49 15.2 °C 8.4 °C 1020.5 hPa SE 9.3 km/h 8.4 km/h 64 % 0 mm
09:54 15.6 °C 8.3 °C 1020.2 hPa SE 9.3 km/h 6.8 km/h 62 % 0 mm
09:59 16.1 °C 8.6 °C 1020.5 hPa SE 11.1 km/h 3.5 km/h 61 % 0 mm
10:04 16.7 °C 8.6 °C 1020.5 hPa SE 9.3 km/h 7.2 km/h 59 % 0 mm
10:09 16.8 °C 8.4 °C 1020.5 hPa SE 11.1 km/h 9.5 km/h 58 % 0 mm
10:14 16.7 °C 8.1 °C 1020.5 hPa SE 16.7 km/h 10.8 km/h 57 % 0 mm
10:19 16.4 °C 8.4 °C 1020.5 hPa SE 11.1 km/h 8 km/h 59 % 0 mm
10:23 16.2 °C 7.9 °C 1020.5 hPa SE 14.8 km/h 11.3 km/h 58 % 0 mm
10:29 16.1 °C 8.3 °C 1020.5 hPa SE 7.4 km/h 5.5 km/h 60 % 0 mm
10:34 16.7 °C 8.4 °C 1020.5 hPa SE 9.7 km/h 8.4 km/h 58 % 0 mm
10:39 16.8 °C 8.8 °C 1020.5 hPa SE 9.3 km/h 5.6 km/h 59 % 0 mm
10:44 17.2 °C 8.8 °C 1020.5 hPa SE 13 km/h 7.4 km/h 58 % 0 mm
10:49 17 °C 8.4 °C 1020.5 hPa SE 5.6 km/h 2.7 km/h 57 % 0 mm
10:54 17.4 °C 8.6 °C 1020.2 hPa SE 6.4 km/h 4.3 km/h 56 % 0 mm
10:59 17.4 °C 8.6 °C 1020.5 hPa SSE 13 km/h 8.5 km/h 56 % 0 mm
11:04 17.3 °C 7.9 °C 1020.2 hPa SSE 9.3 km/h 7.6 km/h 54 % 0 mm
11:09 17.4 °C 7.7 °C 1020.2 hPa SSE 18.5 km/h 7.4 km/h 53 % 0 mm
11:14 17.2 °C 8.1 °C 1020.2 hPa SSE 5.6 km/h 6.1 km/h 55 % 0 mm
11:19 17.6 °C 8.7 °C 1020.2 hPa SSE 11.1 km/h 8.5 km/h 56 % 0 mm
11:24 17.5 °C 7.8 °C 1020.2 hPa SSE 9.3 km/h 6 km/h 53 % 0 mm
11:29 17.8 °C 8.6 °C 1020.2 hPa SSE 9.3 km/h 7.9 km/h 55 % 0 mm
11:34 17.8 °C 7.8 °C 1020.2 hPa SSE 9.7 km/h 4.7 km/h 52 % 0 mm
11:39 17.9 °C 8.2 °C 1020.2 hPa SSE 13 km/h 8.7 km/h 53 % 0 mm
11:44 18.2 °C 8.2 °C 1019.9 hPa SSE 9.7 km/h 7.1 km/h 52 % 0 mm
11:49 18.4 °C 7.8 °C 1019.9 hPa SSE 9.3 km/h 7.2 km/h 50 % 0 mm
11:54 19.3 °C 7.7 °C 1019.9 hPa SSE 9.3 km/h 6.3 km/h 47 % 0 mm
11:59 19.5 °C 7.6 °C 1019.9 hPa SSE 9.3 km/h 6.9 km/h 46 % 0 mm
12:04 19.1 °C 6.9 °C 1020.2 hPa SSE 11.1 km/h 8.2 km/h 45 % 0 mm
12:09 19.1 °C 6.9 °C 1019.9 hPa SSE 7.4 km/h 5.6 km/h 45 % 0 mm
12:14 19.3 °C 7.4 °C 1019.9 hPa SSE 9.3 km/h 6.4 km/h 46 % 0 mm
12:19 19.3 °C 7.4 °C 1019.9 hPa SSE 18.5 km/h 9.3 km/h 46 % 0 mm
12:24 19.2 °C 6.7 °C 1019.9 hPa SSE 13 km/h 0.8 km/h 44 % 0 mm
12:29 19.2 °C 7 °C 1019.5 hPa South 7.4 km/h 3.9 km/h 45 % 0 mm
12:34 19.5 °C 7.6 °C 1019.5 hPa SSE 16.1 km/h 13.4 km/h 46 % 0 mm
12:39 20.1 °C 7.1 °C 1019.5 hPa SSE 11.1 km/h 5.1 km/h 43 % 0 mm
12:44 20.7 °C 7.3 °C 1019.5 hPa SSE 11.1 km/h 8 km/h 42 % 0 mm
12:49 20.4 °C 7.1 °C 1019.5 hPa SSE 9.3 km/h 0.6 km/h 42 % 0 mm
12:54 20.2 °C 7.5 °C 1019.5 hPa SSE 11.1 km/h 7.2 km/h 44 % 0 mm
12:59 21 °C 6.9 °C 1019.2 hPa SSE 7.4 km/h 4.5 km/h 40 % 0 mm
13:04 21.3 °C 6.8 °C 1019.2 hPa SSE 6.4 km/h 3.4 km/h 39 % 0 mm
13:09 21.3 °C 6.8 °C 1019.2 hPa SSE 7.4 km/h 3.7 km/h 39 % 0 mm
13:14 21.1 °C 6.6 °C 1019.2 hPa SSE 11.1 km/h 5.6 km/h 39 % 0 mm
13:19 20.7 °C 5.5 °C 1018.8 hPa SSE 18.5 km/h 7.9 km/h 37 % 0 mm
13:24 20.9 °C 6.8 °C 1018.8 hPa SSE 9.7 km/h 6.3 km/h 40 % 0 mm
13:29 21.4 °C 6.8 °C 1018.8 hPa SSE 7.4 km/h 4.5 km/h 39 % 0 mm
13:34 22.1 °C 6.3 °C 1018.8 hPa SSE 14.8 km/h 9.7 km/h 36 % 0 mm
13:39 22.1 °C 6.3 °C 1018.8 hPa SSE 11.1 km/h 4 km/h 36 % 0 mm
13:44 21.9 °C 6.1 °C 1018.5 hPa SE 13 km/h 5.1 km/h 36 % 0 mm
13:49 21.8 °C 6.5 °C 1018.5 hPa SE 9.7 km/h 7.1 km/h 37 % 0 mm
13:54 22.5 °C 7.1 °C 1018.5 hPa SE 9.7 km/h 4.5 km/h 37 % 0 mm
13:59 22.7 °C 6 °C 1018.5 hPa SE 7.4 km/h 2.3 km/h 34 % 0 mm
14:04 22.7 °C 6.9 °C 1018.5 hPa SE 7.4 km/h 4.3 km/h 36 % 0 mm
14:09 22.4 °C 7 °C 1018.5 hPa SSE 16.7 km/h 9.3 km/h 37 % 0 mm
14:14 22.2 °C 6.8 °C 1018.5 hPa SSE 11.1 km/h 3.1 km/h 37 % 0 mm
14:19 22.7 °C 6.4 °C 1018.2 hPa SE 18.5 km/h 11.7 km/h 35 % 0 mm
14:24 22.8 °C 6.6 °C 1018.5 hPa SSE 8 km/h 8.2 km/h 35 % 0 mm
14:29 22.6 °C 5.9 °C 1018.2 hPa SE 3.7 km/h 1 km/h 34 % 0 mm
14:34 22.5 °C 6.3 °C 1018.2 hPa SE 6.4 km/h 3.7 km/h 35 % 0 mm
14:39 22.5 °C 6.7 °C 1018.2 hPa SE 11.3 km/h 9.7 km/h 36 % 0 mm
14:44 22.6 °C 6.7 °C 1018.2 hPa SSE 11.1 km/h 10.1 km/h 36 % 0 mm
14:49 22.3 °C 6.1 °C 1018.2 hPa SSE 14.8 km/h 11.1 km/h 35 % 0 mm
14:54 22.4 °C 5.3 °C 1017.8 hPa SSE 13 km/h 10 km/h 33 % 0 mm
14:59 22.8 °C 5.7 °C 1017.8 hPa SSE 9.3 km/h 7.6 km/h 33 % 0 mm
15:04 23 °C 4.9 °C 1017.8 hPa SSE 9.3 km/h 6.3 km/h 31 % 0 mm
15:09 22.8 °C 4.8 °C 1017.8 hPa SSE 7.4 km/h 4.7 km/h 31 % 0 mm
15:14 23.2 °C 5.2 °C 1017.8 hPa SSE 5.6 km/h 2.7 km/h 31 % 0 mm
15:19 23.6 °C 5.4 °C 1017.5 hPa ESE 7.4 km/h 5.6 km/h 31 % 0 mm
15:24 23.5 °C 4.9 °C 1017.5 hPa ESE 11.1 km/h 7.2 km/h 30 % 0 mm
15:29 23.5 °C 5.4 °C 1017.5 hPa ESE 7.4 km/h 7.1 km/h 31 % 0 mm
15:34 24.2 °C 5.6 °C 1017.5 hPa ESE 8 km/h 5.3 km/h 30 % 0 mm
15:39 24.4 °C 5.2 °C 1017.5 hPa ESE 14.8 km/h 8 km/h 29 % 0 mm
15:44 24.4 °C 5.7 °C 1017.5 hPa ESE 9.3 km/h 8 km/h 30 % 0 mm
15:49 24.4 °C 5.2 °C 1017.2 hPa ESE 13 km/h 8 km/h 29 % 0 mm
15:54 24.3 °C 5.6 °C 1017.2 hPa ESE 12.9 km/h 9.3 km/h 30 % 0 mm
15:59 24 °C 4.8 °C 1017.2 hPa ESE 14.8 km/h 13.2 km/h 29 % 0 mm
16:04 24.1 °C 5.4 °C 1017.2 hPa ESE 11.1 km/h 8.9 km/h 30 % 0 mm
16:09 24.1 °C 4.9 °C 1016.8 hPa ESE 11.1 km/h 4.3 km/h 29 % 0 mm
16:14 23.9 °C 5.3 °C 1016.8 hPa ESE 9.3 km/h 7.1 km/h 30 % 0 mm
16:19 24.1 °C 4.9 °C 1016.8 hPa ESE 8 km/h 4 km/h 29 % 0 mm
16:24 24.3 °C 5.2 °C 1016.8 hPa ESE 11.3 km/h 8.9 km/h 29 % 0 mm
16:29 24.4 °C 4.2 °C 1016.8 hPa ESE 11.3 km/h 5.6 km/h 27 % 0 mm
16:34 24.1 °C 3.9 °C 1016.8 hPa ESE 9.3 km/h 5.5 km/h 27 % 0 mm
16:39 24.1 °C 4.9 °C 1016.8 hPa ESE 9.7 km/h 5 km/h 29 % 0 mm
16:44 24.1 °C 4.4 °C 1016.8 hPa ESE 3.7 km/h 0.2 km/h 28 % 0 mm
16:49 24.4 °C 4.2 °C 1016.8 hPa ESE 9.3 km/h 6 km/h 27 % 0 mm
16:54 24.3 °C 4.1 °C 1016.8 hPa ESE 5.6 km/h 1.4 km/h 27 % 0 mm
16:59 24.4 °C 4.2 °C 1016.8 hPa ESE 5.6 km/h 5.5 km/h 27 % 0 mm
17:04 24.4 °C 4.2 °C 1016.5 hPa ESE 11.1 km/h 8.9 km/h 27 % 0 mm
17:09 24.6 °C 4.3 °C 1016.5 hPa SE 11.3 km/h 9.7 km/h 27 % 0 mm
17:14 24.1 °C 4.4 °C 1016.5 hPa SE 11.1 km/h 6.6 km/h 28 % 0 mm
17:19 23.9 °C 3.7 °C 1016.5 hPa SE 9.3 km/h 5.1 km/h 27 % 0 mm
17:24 24.1 °C 4.4 °C 1016.5 hPa SE 5.6 km/h 2.6 km/h 28 % 0 mm
17:29 24.5 °C 4.3 °C 1016.5 hPa SE 11.1 km/h 7.6 km/h 27 % 0 mm
17:34 24.6 °C 4.3 °C 1016.5 hPa SE 11.1 km/h 7.2 km/h 27 % 0 mm
17:39 24.4 °C 5.2 °C 1016.5 hPa SE 8 km/h 4.8 km/h 29 % 0 mm
17:44 24.3 °C 4.1 °C 1016.5 hPa SE 11.1 km/h 6.9 km/h 27 % 0 mm
17:49 24.4 °C 4.2 °C 1016.5 hPa SE 3.7 km/h 0.6 km/h 27 % 0 mm
17:54 24.6 °C 4.3 °C 1016.5 hPa SE 5.6 km/h 0.8 km/h 27 % 0 mm
17:59 24.7 °C 5 °C 1016.5 hPa SE 3.7 km/h 1 km/h 28 % 0 mm
18:04 24.9 °C 5.1 °C 1016.5 hPa SE 9.3 km/h 6.6 km/h 28 % 0 mm
18:09 24.7 °C 5.5 °C 1016.5 hPa SE 7.4 km/h 2.4 km/h 29 % 0 mm
18:14 24.5 °C 4.3 °C 1016.1 hPa SE 7.4 km/h 3.7 km/h 27 % 0 mm
18:19 24.4 °C 4.7 °C 1016.5 hPa SE 8 km/h 4.7 km/h 28 % 0 mm
18:24 24.3 °C 4.1 °C 1016.5 hPa SE 11.1 km/h 7.6 km/h 27 % 0 mm
18:29 24.2 °C 5.1 °C 1016.5 hPa SE 12.9 km/h 9.7 km/h 29 % 0 mm
18:34 24.1 °C 4.9 °C 1016.5 hPa SE 11.3 km/h 9.5 km/h 29 % 0 mm
18:39 23.9 °C 4.8 °C 1016.5 hPa SE 9.3 km/h 4.5 km/h 29 % 0 mm
18:44 24.1 °C 4.4 °C 1016.5 hPa SE 7.4 km/h 3.4 km/h 28 % 0 mm
18:49 24.1 °C 4.4 °C 1016.1 hPa SE 5.6 km/h 2.7 km/h 28 % 0 mm
18:54 24.1 °C 4.4 °C 1016.5 hPa SE 7.4 km/h 5.5 km/h 28 % 0 mm
18:59 24.1 °C 4.9 °C 1016.5 hPa SE 3.7 km/h 2.3 km/h 29 % 0 mm
19:04 24.2 °C 5.1 °C 1016.5 hPa ESE 6.4 km/h 2.6 km/h 29 % 0 mm
19:09 24.1 °C 4.4 °C 1016.5 hPa SE 6.4 km/h 4.8 km/h 28 % 0 mm
19:14 24 °C 5.3 °C 1016.5 hPa SE 5.6 km/h 2.6 km/h 30 % 0 mm
19:19 23.8 °C 4.7 °C 1016.5 hPa SE 5.6 km/h 1.6 km/h 29 % 0 mm
19:24 23.6 °C 4.9 °C 1016.5 hPa Calm   0.3 km/h 30 % 0 mm
19:29 23.2 °C 5.6 °C 1016.5 hPa SE 9.3 km/h 3.5 km/h 32 % 0 mm
19:34 22.8 °C 6.6 °C 1016.5 hPa SE 3.7 km/h 1.6 km/h 35 % 0 mm
19:39 22.4 °C 7 °C 1016.5 hPa SE 3.7 km/h 2.3 km/h 37 % 0 mm
19:44 22.2 °C 7.2 °C 1016.5 hPa SE 5.6 km/h 2.9 km/h 38 % 0 mm
19:49 21.9 °C 7.7 °C 1016.5 hPa SSE 19.3 km/h 10.5 km/h 40 % 0 mm
19:54 21.3 °C 8.5 °C 1016.5 hPa SSE 9.7 km/h 6.9 km/h 44 % 0 mm
19:59 20.7 °C 8.6 °C 1016.5 hPa SSE 11.1 km/h 6.8 km/h 46 % 0 mm
20:04 20.2 °C 8.8 °C 1016.8 hPa SSE 13 km/h 5.1 km/h 48 % 0 mm
20:09 19.8 °C 9.1 °C 1016.8 hPa SSE 13 km/h 7.4 km/h 50 % 0 mm
20:14 19.4 °C 9.1 °C 1016.8 hPa SSE 9.3 km/h 4 km/h 51 % 0 mm
20:19 19.1 °C 9.3 °C 1016.8 hPa SSE 11.1 km/h 4 km/h 53 % 0 mm
20:24 18.8 °C 9.3 °C 1016.8 hPa SSE 8 km/h 3.9 km/h 54 % 0 mm
20:29 18.5 °C 9.3 °C 1016.8 hPa SSE 3.7 km/h 3.9 km/h 55 % 0 mm
20:34 18.2 °C 9.6 °C 1017.2 hPa SSE 9.3 km/h 8 km/h 57 % 0 mm
20:39 18 °C 9.6 °C 1017.2 hPa SSE 7.4 km/h 5.3 km/h 58 % 0 mm
20:44 17.8 °C 9.7 °C 1017.2 hPa SSE 11.1 km/h 6.6 km/h 59 % 0 mm
20:49 17.7 °C 9.6 °C 1017.2 hPa SSE 6.4 km/h 6.1 km/h 59 % 0 mm
20:54 17.6 °C 9.5 °C 1017.2 hPa SSE 13 km/h 10.3 km/h 59 % 0 mm
20:59 17.7 °C 9.6 °C 1017.2 hPa SSE 9.3 km/h 2.4 km/h 59 % 0 mm
21:04 17.6 °C 9.7 °C 1017.2 hPa SSE 9.3 km/h 4.3 km/h 60 % 0 mm
21:09 17.4 °C 9.8 °C 1017.2 hPa SSE 11.3 km/h 2.3 km/h 61 % 0 mm
21:14 17.2 °C 9.6 °C 1017.2 hPa SSE 9.3 km/h 7.4 km/h 61 % 0 mm
21:19 17.1 °C 9.8 °C 1017.2 hPa SSE 5.6 km/h 5.3 km/h 62 % 0 mm
21:24 16.9 °C 9.8 °C 1017.2 hPa SSE 5.6 km/h 3.9 km/h 63 % 0 mm
21:29 16.7 °C 9.9 °C 1017.2 hPa SSE 5.6 km/h 4 km/h 64 % 0 mm
21:34 16.5 °C 9.9 °C 1017.5 hPa SSE 9.3 km/h 6.4 km/h 65 % 0 mm
21:39 16.3 °C 9.7 °C 1017.5 hPa SSE 5.6 km/h 4.5 km/h 65 % 0 mm
21:44 16.2 °C 9.8 °C 1017.5 hPa SSE 3.2 km/h 2.3 km/h 66 % 0 mm
21:49 16 °C 9.9 °C 1017.5 hPa SSE 5.6 km/h 4.2 km/h 67 % 0 mm
21:54 15.9 °C 9.8 °C 1017.5 hPa SSE 9.3 km/h 4.3 km/h 67 % 0 mm
21:59 15.8 °C 9.7 °C 1017.5 hPa SSE 9.3 km/h 5.3 km/h 67 % 0 mm
22:04 15.8 °C 9.7 °C 1017.5 hPa SSE 7.4 km/h 3.7 km/h 67 % 0 mm
22:09 15.8 °C 9.7 °C 1017.5 hPa SSE 7.4 km/h 3.1 km/h 67 % 0 mm
22:14 15.7 °C 9.6 °C 1017.5 hPa SSE 9.3 km/h 9.7 km/h 67 % 0 mm
22:19 15.7 °C 9.6 °C 1017.5 hPa SSE 3.7 km/h 3.2 km/h 67 % 0 mm
22:24 15.6 °C 9.5 °C 1017.5 hPa SSE 6.4 km/h 3.9 km/h 67 % 0 mm
22:29 15.5 °C 9.4 °C 1017.5 hPa SSE 9.3 km/h 6.1 km/h 67 % 0 mm
22:34 15.3 °C 9.2 °C 1017.5 hPa SSE 5.6 km/h 3.4 km/h 67 % 0 mm
22:39 15.2 °C 9.3 °C 1017.5 hPa SSE 5.6 km/h 2.4 km/h 68 % 0 mm
22:44 15 °C 9.1 °C 1017.5 hPa SSE 3.7 km/h 1.1 km/h 68 % 0 mm
22:49 14.8 °C 9.2 °C 1017.5 hPa SSE 8 km/h 5 km/h 69 % 0 mm
22:54 14.7 °C 9.1 °C 1017.5 hPa SSE 9.3 km/h 7.2 km/h 69 % 0 mm
22:59 14.6 °C 9 °C 1017.2 hPa SSE 5.6 km/h 2.1 km/h 69 % 0 mm
23:04 14.5 °C 8.9 °C 1017.5 hPa SSE 3.7 km/h 0.3 km/h 69 % 0 mm
23:09 14.4 °C 9 °C 1017.5 hPa SSE 3.7 km/h 1.6 km/h 70 % 0 mm
23:14 14.2 °C 8.8 °C 1017.2 hPa SSE 5.6 km/h 3.7 km/h 70 % 0 mm
23:19 14.1 °C 8.7 °C 1017.2 hPa SSE 5.6 km/h 5 km/h 70 % 0 mm
23:24 13.9 °C 8.7 °C 1017.2 hPa SSE 6.4 km/h 4.5 km/h 71 % 0 mm
23:29 13.7 °C 8.6 °C 1017.2 hPa SSE 5.6 km/h 3.5 km/h 71 % 0 mm
23:34 13.6 °C 8.7 °C 1017.2 hPa SSE 5.6 km/h 2.3 km/h 72 % 0 mm
23:39 13.5 °C 8.6 °C 1017.2 hPa SSE 3.7 km/h 1.6 km/h 72 % 0 mm
23:44 13.4 °C 8.7 °C 1017.2 hPa SSE 6.4 km/h 3.4 km/h 73 % 0 mm
23:49 13.2 °C 8.5 °C 1017.2 hPa SSE 3.7 km/h 2.4 km/h 73 % 0 mm
23:54 13.1 °C 8.4 °C 1017.2 hPa SSE 3.7 km/h 2.6 km/h 73 % 0 mm
23:59 13.1 °C 8.5 °C 1017.2 hPa SSE 6.4 km/h 3.1 km/h 74 % 0 mm
Ararat Weather
Compliments of Weather Underground - 2.25 mb
Click here to send mail.


ABOUT

Live weather data from Ararat, Victoria, Australia, 3377
Data uploaded from Cumulus every 5 minutes to Weather Underground.
This site then downloads the raw data for formatting and display.
Metric and imperial data can be displayed. Graphs and historical data available.
Includes Sun and Moon times and rain image live from BOM.

Check out Ararat Weather on Facebook, Twitter and Google +

Help support ongoing costs by checking out the ads





Follow @AraratWeather